Terminal Aerodrome Forecast
Issued by NWS Cleveland, OH

Home | Current Version | Previous Version | Graphics & Text | Print | Product List | Glossary On
Versions: 1 2 3 4 5 6 7 8 9 10 11 12 13 14 15 16
000
FTUS41 KCLE 201100
TAFERI
TAF
KERI 201134Z 2012/2112 19003KT P6SM BKN030 OVC045
     FM201500 24006KT P6SM OVC045
     FM201900 32007KT P6SM SCT045
     FM210000 VRB03KT P6SM SKC=

USA.gov is the U.S. government's official web portal to all federal, state and local government web resources and services.